Terminal Aerodrome Forecast
Issued by NWS

Home | Current Version | Previous Version | Text Only | Print | Product List | Glossary On
Versions: 1 2 3 4 5 6 7 8 9 10 11 12 13 14 15 16
000
FTUS42 KGSP 250904 AAA
TAFHKY
TAF AMD
KHKY 250904Z 2509/2606 VRB02KT 4SM BR FEW002 SCT050
      TEMPO 2509/2512 1/4SM FG VV001
     FM251200 00000KT 6SM BR BKN004
     FM251400 VRB03KT P6SM SCT200
     FM251800 22003KT P6SM BKN050
     FM252200 VRB02KT P6SM SCT060=

USA.gov is the U.S. government's official web portal to all federal, state and local government web resources and services.